Mount Pleasant, Mississippi
Current Conditions -  °F | °C
As of 10:55 PM on Friday 31 Oct 2014 (Local Time) from KOLV Reporting Station
Clear Clear  
Wind Chill: 31°   Ceiling: Unl
Heat Index: 37°   Visibility: 8mi
Dew Point: 28°   Wind: 9mph
Humidity: 70%   Direction: 350°N
Pressure: 30.32"   Gusts: NA
Location:  34.96°N, 89.52°W
Report Text: KOLV 010355Z AUTO 35008KT 8SM CLR 03/M02 A3032 RMK A01 P000
Loading
Personal Weather Stations






























Interactive Weather Map
Tropical Storm Tracking
New forecast layout! Learn more

10-Day Weather Forecast

Advertisements
Track Severe Weather on mobile